createdAt,value
2018-11-22T00:02:18.926Z,11.17
2018-11-22T00:04:48.626Z,11.34
2018-11-22T00:07:18.317Z,11.04
2018-11-22T00:09:48.511Z,10.78
2018-11-22T00:12:18.205Z,10.97
2018-11-22T00:14:48.317Z,11.12
2018-11-22T00:17:18.043Z,11.30
2018-11-22T00:19:47.749Z,11.13
2018-11-22T00:22:17.858Z,10.63
2018-11-22T00:24:47.612Z,10.84
2018-11-22T00:27:17.262Z,10.73
2018-11-22T00:29:47.310Z,10.95
2018-11-22T00:32:17.332Z,11.35
2018-11-22T00:34:46.989Z,10.97
2018-11-22T00:37:16.679Z,11.21
2018-11-22T00:39:46.356Z,11.33
2018-11-22T00:42:16.396Z,11.20
2018-11-22T00:44:46.528Z,11.18
2018-11-22T00:47:16.193Z,11.76
2018-11-22T00:49:45.937Z,11.49
2018-11-22T00:52:16.464Z,10.74
2018-11-22T00:54:46.153Z,11.08
2018-11-22T00:57:35.151Z,10.92
2018-11-22T01:00:04.837Z,11.28
2018-11-22T01:02:34.515Z,11.43
2018-11-22T01:05:04.209Z,11.05
2018-11-22T01:07:33.866Z,11.14
2018-11-22T01:10:03.701Z,10.83
2018-11-22T01:12:33.802Z,11.35
2018-11-22T01:15:03.861Z,11.43
2018-11-22T01:17:33.557Z,11.44
2018-11-22T01:20:04.560Z,11.73
2018-11-22T01:22:33.348Z,11.18
2018-11-22T01:25:03.018Z,11.37
2018-11-22T01:27:33.353Z,11.15
2018-11-22T01:30:03.517Z,11.28
2018-11-22T01:32:33.191Z,10.92
2018-11-22T01:35:03.318Z,11.19
2018-11-22T01:37:33.531Z,11.18
2018-11-22T01:40:04.105Z,11.46
2018-11-22T01:42:34.179Z,10.92
2018-11-22T01:45:04.610Z,11.19
2018-11-22T01:47:34.310Z,11.29
2018-11-22T01:50:04.000Z,11.20
2018-11-22T01:52:34.170Z,11.43
2018-11-22T01:55:22.443Z,11.30
2018-11-22T01:57:52.136Z,11.28
2018-11-22T02:00:24.376Z,10.86
2018-11-22T02:02:54.821Z,11.27
2018-11-22T02:05:25.672Z,11.16
2018-11-22T02:07:55.658Z,10.99
2018-11-22T02:10:26.317Z,11.15
2018-11-22T02:12:56.024Z,11.02
2018-11-22T02:15:27.381Z,11.22
2018-11-22T02:18:15.952Z,11.15
2018-11-22T02:20:45.998Z,11.11
2018-11-22T02:23:16.489Z,11.22
2018-11-22T02:25:46.193Z,10.95
2018-11-22T02:28:16.746Z,11.10
2018-11-22T02:30:46.451Z,11.44
2018-11-22T02:33:16.185Z,11.02
2018-11-22T02:35:45.856Z,11.10
2018-11-22T02:38:15.564Z,11.01
2018-11-22T02:40:45.285Z,10.95
2018-11-22T02:43:14.973Z,10.88
2018-11-22T02:45:45.036Z,11.27
2018-11-22T02:48:15.049Z,11.49
2018-11-22T02:50:45.191Z,11.13
2018-11-22T02:53:14.870Z,10.79
2018-11-22T02:55:44.904Z,11.07
2018-11-22T02:58:15.038Z,10.70
2018-11-22T03:00:46.086Z,10.71
2018-11-22T03:03:16.709Z,10.86
2018-11-22T03:05:46.404Z,11.31
2018-11-22T03:08:16.155Z,11.23
2018-11-22T03:10:45.872Z,10.99
2018-11-22T03:13:17.760Z,10.68
2018-11-22T03:15:47.470Z,10.90
2018-11-22T03:18:17.442Z,10.67
2018-11-22T03:21:06.102Z,10.98
2018-11-22T03:23:35.811Z,10.66
2018-11-22T03:26:06.032Z,10.62
2018-11-22T03:28:35.751Z,10.57
2018-11-22T03:31:05.671Z,10.84
2018-11-22T03:33:35.633Z,10.79
2018-11-22T03:36:05.396Z,11.08
2018-11-22T03:38:35.421Z,10.80
2018-11-22T03:41:05.193Z,10.67
2018-11-22T03:43:35.761Z,10.84
2018-11-22T03:46:06.032Z,10.99
2018-11-22T03:48:35.750Z,10.66
2018-11-22T03:51:05.641Z,11.05
2018-11-22T03:53:35.352Z,10.71
2018-11-22T03:56:23.950Z,10.66
2018-11-22T03:58:54.523Z,10.57
2018-11-22T04:01:24.347Z,10.91
2018-11-22T04:03:54.069Z,10.92
2018-11-22T04:06:23.874Z,10.86
2018-11-22T04:08:53.891Z,10.93
2018-11-22T04:11:24.324Z,12.16
2018-11-22T04:13:54.160Z,12.10
2018-11-22T04:16:23.975Z,11.97
2018-11-22T04:18:53.755Z,12.10
2018-11-22T04:21:23.440Z,11.82
2018-11-22T04:23:53.620Z,12.08
2018-11-22T04:26:24.127Z,11.50
2018-11-22T04:28:53.023Z,11.63
2018-11-22T04:31:23.179Z,11.20
2018-11-22T04:33:52.871Z,10.91
2018-11-22T04:36:22.591Z,10.70
2018-11-22T04:38:52.599Z,11.18
2018-11-22T04:41:22.307Z,11.22
2018-11-22T04:43:52.024Z,11.30
2018-11-22T04:46:22.041Z,10.93
2018-11-22T04:48:51.841Z,11.18
2018-11-22T04:51:21.541Z,11.25
2018-11-22T04:53:51.308Z,10.98
2018-11-22T04:56:21.408Z,10.77
2018-11-22T04:58:51.240Z,11.03
2018-11-22T05:01:21.850Z,11.07
2018-11-22T05:03:51.681Z,10.78
2018-11-22T05:06:21.411Z,11.23
2018-11-22T05:08:51.665Z,10.76
2018-11-22T05:11:21.530Z,10.76
2018-11-22T05:13:51.222Z,10.96
2018-11-22T05:16:20.943Z,11.08
2018-11-22T05:18:51.076Z,10.95
2018-11-22T05:21:21.670Z,10.70
2018-11-22T05:23:51.438Z,10.73
2018-11-22T05:26:40.426Z,11.11
2018-11-22T05:29:12.439Z,10.69
2018-11-22T05:34:35.234Z,11.10
2018-11-22T05:37:04.927Z,11.11
2018-11-22T05:39:34.657Z,11.38
2018-11-22T05:42:04.406Z,10.91
2018-11-22T05:44:34.136Z,10.76
2018-11-22T05:47:03.803Z,10.75
2018-11-22T05:49:34.297Z,10.99
2018-11-22T05:52:03.979Z,10.72
2018-11-22T05:54:33.672Z,11.17
2018-11-22T05:57:04.190Z,11.06
2018-11-22T05:59:34.617Z,11.14
2018-11-22T06:02:04.831Z,10.89
2018-11-22T06:04:34.558Z,11.00
2018-11-22T06:07:04.349Z,10.97
2018-11-22T06:09:34.071Z,10.88
2018-11-22T06:12:03.748Z,10.95
2018-11-22T06:14:33.441Z,11.00
2018-11-22T06:17:03.597Z,10.89
2018-11-22T06:19:33.285Z,10.99
2018-11-22T06:22:03.005Z,11.00
2018-11-22T06:24:32.768Z,10.47
2018-11-22T06:27:02.511Z,10.94
2018-11-22T06:29:33.022Z,10.38
2018-11-22T06:32:02.735Z,10.79
2018-11-22T06:34:33.725Z,10.60
2018-11-22T06:37:03.456Z,10.79
2018-11-22T06:39:33.651Z,11.32
2018-11-22T06:42:03.824Z,11.25
2018-11-22T06:44:33.532Z,11.09
2018-11-22T06:47:03.246Z,11.19
2018-11-22T06:49:32.953Z,10.79
2018-11-22T06:52:02.984Z,11.26
2018-11-22T06:54:33.125Z,10.86
2018-11-22T06:57:02.891Z,10.70
2018-11-22T06:59:32.595Z,10.61
2018-11-22T07:02:02.333Z,10.25
2018-11-22T07:04:32.052Z,10.83
2018-11-22T07:07:01.770Z,10.26
2018-11-22T07:09:31.469Z,10.12
2018-11-22T07:12:01.506Z,10.23
2018-11-22T07:14:31.720Z,10.42
2018-11-22T07:17:01.752Z,10.66
2018-11-22T07:19:31.871Z,10.90
2018-11-22T07:22:01.580Z,10.49
2018-11-22T07:24:50.184Z,10.21
2018-11-22T07:27:19.897Z,10.56
2018-11-22T07:29:50.402Z,10.47
2018-11-22T07:32:39.076Z,10.38
2018-11-22T07:35:11.028Z,10.21
2018-11-22T07:37:41.652Z,10.53
2018-11-22T07:40:14.169Z,10.54
2018-11-22T07:42:47.121Z,10.55
2018-11-22T07:45:16.023Z,10.35
2018-11-22T07:47:46.329Z,10.38
2018-11-22T07:50:17.912Z,10.61
2018-11-22T07:52:47.913Z,9.90
2018-11-22T07:55:18.640Z,10.35
2018-11-22T07:57:48.329Z,10.26
2018-11-22T08:00:37.296Z,10.09
2018-11-22T08:03:07.530Z,10.41
2018-11-22T08:05:39.103Z,10.18
2018-11-22T08:08:08.804Z,10.70
2018-11-22T08:10:38.512Z,10.23
2018-11-22T08:13:08.346Z,10.59
2018-11-22T08:15:39.493Z,10.48
2018-11-22T08:18:09.223Z,10.33
2018-11-22T08:20:39.031Z,10.46
2018-11-22T08:23:09.344Z,10.11
2018-11-22T08:25:39.044Z,10.30
2018-11-22T08:28:08.820Z,10.20
2018-11-22T08:30:57.589Z,10.54
2018-11-22T08:33:28.116Z,10.46
2018-11-22T08:35:57.770Z,10.52
2018-11-22T08:38:27.451Z,10.30
2018-11-22T08:40:57.160Z,9.85
2018-11-22T08:43:26.857Z,10.12
2018-11-22T08:46:15.153Z,10.19
2018-11-22T08:48:44.861Z,10.19
2018-11-22T08:51:14.551Z,9.91
2018-11-22T08:54:03.175Z,10.88
2018-11-22T08:56:51.432Z,10.88
2018-11-22T08:59:21.069Z,10.77
2018-11-22T09:01:51.533Z,10.10
2018-11-22T09:04:21.454Z,10.46
2018-11-22T09:06:51.889Z,10.42
2018-11-22T09:09:40.116Z,10.13
2018-11-22T09:12:10.184Z,10.65
2018-11-22T09:14:39.836Z,10.86
2018-11-22T09:17:09.481Z,10.25
2018-11-22T09:19:39.500Z,10.90
2018-11-22T09:22:09.926Z,10.94
2018-11-22T09:24:39.570Z,11.10
2018-11-22T09:27:09.194Z,11.02
2018-11-22T09:29:39.552Z,11.36
2018-11-22T09:32:27.808Z,11.08
2018-11-22T09:34:58.247Z,11.06
2018-11-22T09:37:27.885Z,11.54
2018-11-22T09:39:57.968Z,11.47
2018-11-22T09:42:27.644Z,11.28
2018-11-22T09:44:57.717Z,11.67
2018-11-22T09:47:27.363Z,11.07
2018-11-22T09:49:56.993Z,11.43
2018-11-22T09:52:26.671Z,11.40
2018-11-22T09:54:56.750Z,11.47
2018-11-22T09:57:26.784Z,11.05
2018-11-22T09:59:56.715Z,11.33
2018-11-22T10:02:26.364Z,11.46
2018-11-22T10:04:56.664Z,11.94
2018-11-22T10:07:26.257Z,11.90
2018-11-22T10:09:56.366Z,11.86
2018-11-22T10:12:26.509Z,12.00
2018-11-22T10:14:56.398Z,11.62
2018-11-22T10:17:26.749Z,12.25
2018-11-22T10:19:57.082Z,13.00
2018-11-22T10:22:26.746Z,13.21
2018-11-22T10:24:56.359Z,13.50
2018-11-22T10:27:26.434Z,13.72
2018-11-22T10:29:56.486Z,13.87
2018-11-22T10:32:26.536Z,13.95
2018-11-22T10:34:56.181Z,14.08
2018-11-22T10:37:25.827Z,13.58
2018-11-22T10:39:55.932Z,13.53
2018-11-22T10:42:25.964Z,13.44
2018-11-22T10:44:55.624Z,13.60
2018-11-22T10:47:25.557Z,12.27
2018-11-22T10:49:56.297Z,12.60
2018-11-22T10:52:26.299Z,12.72
2018-11-22T10:54:55.942Z,14.05
2018-11-22T10:57:26.591Z,14.01
2018-11-22T10:59:56.220Z,13.98
2018-11-22T11:02:44.483Z,14.67
2018-11-22T11:05:32.786Z,15.32
2018-11-22T11:08:21.016Z,14.99
2018-11-22T11:10:51.851Z,16.53
2018-11-22T11:13:21.475Z,16.99
2018-11-22T11:15:51.595Z,16.23
2018-11-22T11:18:21.697Z,16.27
2018-11-22T11:20:51.357Z,16.66
2018-11-22T11:23:21.052Z,17.04
2018-11-22T11:25:51.732Z,15.31
2018-11-22T11:28:21.383Z,15.28
2018-11-22T11:30:51.049Z,14.47
2018-11-22T11:33:20.690Z,13.82
2018-11-22T11:35:50.322Z,12.97
2018-11-22T11:38:20.350Z,12.69
2018-11-22T11:40:51.287Z,13.18
2018-11-22T11:43:20.939Z,13.04
2018-11-22T11:45:51.287Z,13.02
2018-11-22T11:48:21.459Z,12.44
2018-11-22T11:50:51.537Z,12.56
2018-11-22T11:53:27.114Z,11.85
2018-11-22T11:55:52.329Z,12.31
2018-11-22T11:58:22.539Z,12.29
2018-11-22T12:00:52.193Z,11.92
2018-11-22T12:03:21.830Z,12.32
2018-11-22T12:05:51.491Z,12.43
2018-11-22T12:08:21.597Z,11.33
2018-11-22T12:10:51.291Z,11.62
2018-11-22T12:13:21.830Z,11.87
2018-11-22T12:15:51.497Z,11.97
2018-11-22T12:18:21.123Z,11.74
2018-11-22T12:20:51.597Z,12.14
2018-11-22T12:23:21.589Z,11.76
2018-11-22T12:25:51.223Z,12.26
2018-11-22T12:28:21.255Z,12.57
2018-11-22T12:31:09.488Z,12.51
2018-11-22T12:33:39.529Z,12.32
2018-11-22T12:36:28.182Z,11.96
2018-11-22T12:38:57.832Z,11.33
2018-11-22T12:41:28.223Z,11.12
2018-11-22T12:43:58.270Z,12.30
2018-11-22T12:46:28.806Z,12.23
2018-11-22T12:48:58.896Z,12.23
2018-11-22T12:51:28.900Z,11.73
2018-11-22T12:53:58.546Z,12.05
2018-11-22T12:56:28.188Z,12.16
2018-11-22T12:58:58.238Z,11.86
2018-11-22T13:01:28.597Z,12.37
2018-11-22T13:03:58.603Z,11.52
2018-11-22T13:06:28.276Z,11.66
2018-11-22T13:08:58.332Z,12.13
2018-11-22T13:11:28.417Z,12.42
2018-11-22T13:14:16.948Z,12.29
2018-11-22T13:16:46.611Z,12.27
2018-11-22T13:19:17.129Z,12.30
2018-11-22T13:22:05.387Z,12.34
2018-11-22T13:24:35.372Z,12.55
2018-11-22T13:27:05.432Z,12.14
2018-11-22T13:29:36.404Z,12.38
2018-11-22T13:32:06.281Z,12.20
2018-11-22T13:34:35.966Z,12.20
2018-11-22T13:37:05.711Z,11.94
2018-11-22T13:39:35.360Z,11.95
2018-11-22T13:42:24.308Z,11.55
2018-11-22T13:44:53.963Z,11.69
2018-11-22T13:47:44.092Z,11.71
2018-11-22T13:50:16.690Z,11.43
2018-11-22T13:52:47.300Z,11.30
2018-11-22T13:55:17.964Z,12.04
2018-11-22T13:57:47.602Z,11.42
2018-11-22T14:00:22.700Z,11.58
2018-11-22T14:03:11.644Z,11.77
2018-11-22T14:05:42.209Z,11.77
2018-11-22T14:08:12.216Z,12.20
2018-11-22T14:10:41.865Z,12.22
2018-11-22T14:13:11.554Z,11.95
2018-11-22T14:15:41.180Z,11.77
2018-11-22T14:18:11.584Z,11.46
2018-11-22T14:20:41.594Z,11.64
2018-11-22T14:23:30.636Z,12.02
2018-11-22T14:26:00.681Z,11.71
2018-11-22T14:28:30.718Z,11.58
2018-11-22T14:31:00.720Z,11.48
2018-11-22T14:33:30.371Z,11.46
2018-11-22T14:36:00.006Z,11.34
2018-11-22T14:38:29.653Z,11.19
2018-11-22T14:40:59.317Z,11.40
2018-11-22T14:43:29.406Z,11.58
2018-11-22T14:45:59.423Z,11.26
2018-11-22T14:48:29.076Z,12.01
2018-11-22T14:51:19.329Z,11.76
2018-11-22T14:53:49.467Z,12.02
2018-11-22T14:56:19.466Z,11.93
2018-11-22T14:58:49.101Z,11.83
2018-11-22T15:01:19.100Z,11.48
2018-11-22T15:03:49.110Z,11.78
2018-11-22T15:06:18.767Z,11.81
2018-11-22T15:08:48.753Z,11.98
2018-11-22T15:11:18.777Z,12.06
2018-11-22T15:13:48.439Z,11.69
2018-11-22T15:16:25.848Z,11.78
2018-11-22T15:18:55.517Z,11.73
2018-11-22T15:21:25.920Z,12.05
2018-11-22T15:23:55.976Z,11.50
2018-11-22T15:26:26.468Z,11.80
2018-11-22T15:28:57.302Z,11.73
2018-11-22T15:31:27.745Z,11.61
2018-11-22T15:33:57.401Z,11.26
2018-11-22T15:36:27.159Z,11.18
2018-11-22T15:38:56.817Z,11.50
2018-11-22T15:41:26.452Z,11.36
2018-11-22T15:43:56.477Z,11.20
2018-11-22T15:46:26.056Z,11.35
2018-11-22T15:48:55.692Z,11.02
2018-11-22T15:51:45.009Z,10.96
2018-11-22T15:54:14.650Z,10.96
2018-11-22T15:56:45.052Z,11.04
2018-11-22T15:59:15.563Z,10.29
2018-11-22T16:01:45.616Z,10.53
2018-11-22T16:04:15.490Z,10.85
2018-11-22T16:06:45.547Z,10.80
2018-11-22T16:09:15.192Z,10.60
2018-11-22T16:11:44.840Z,10.27
2018-11-22T16:14:15.393Z,10.61
2018-11-22T16:16:45.066Z,10.61
2018-11-22T16:19:14.697Z,10.71
2018-11-22T16:21:44.714Z,10.27
2018-11-22T16:24:14.370Z,10.78
2018-11-22T16:26:44.023Z,10.75
2018-11-22T16:29:13.651Z,10.83
2018-11-22T16:31:43.689Z,10.57
2018-11-22T16:34:15.291Z,10.58
2018-11-22T16:36:45.686Z,10.55
2018-11-22T16:39:15.339Z,10.82
2018-11-22T16:41:45.065Z,10.75
2018-11-22T16:44:15.824Z,10.64
2018-11-22T16:46:47.555Z,10.78
2018-11-22T16:49:18.473Z,10.87
2018-11-22T16:51:49.392Z,10.94
2018-11-22T16:54:38.867Z,10.98
2018-11-22T16:57:09.711Z,10.62
2018-11-22T16:59:40.213Z,10.03
2018-11-22T17:02:29.090Z,10.97
2018-11-22T17:04:59.427Z,10.46
2018-11-22T17:07:29.649Z,10.53
2018-11-22T17:09:59.450Z,10.95
2018-11-22T17:12:29.344Z,10.73
2018-11-22T17:15:19.961Z,10.87
2018-11-22T17:17:50.223Z,10.74
2018-11-22T17:20:20.886Z,10.40
2018-11-22T17:22:51.208Z,10.67
2018-11-22T17:25:39.776Z,10.80
2018-11-22T17:28:10.226Z,10.57
2018-11-22T17:30:58.874Z,10.61
2018-11-22T17:33:28.612Z,10.09
2018-11-22T17:35:58.575Z,10.28
2018-11-22T17:38:47.218Z,10.26
2018-11-22T17:41:17.317Z,10.21
2018-11-22T17:43:46.953Z,10.31
2018-11-22T17:46:16.602Z,10.21
2018-11-22T17:48:46.258Z,10.21
2018-11-22T17:51:15.965Z,10.17
2018-11-22T17:53:45.591Z,10.66
2018-11-22T17:56:15.635Z,10.36
2018-11-22T17:58:45.716Z,10.58
2018-11-22T18:01:15.353Z,10.53
2018-11-22T18:03:45.450Z,10.30
2018-11-22T18:06:15.538Z,10.45
2018-11-22T18:08:45.177Z,10.50
2018-11-22T18:11:33.699Z,10.17
2018-11-22T18:14:03.760Z,10.22
2018-11-22T18:16:33.405Z,10.31
2018-11-22T18:19:03.048Z,10.08
2018-11-22T18:21:33.097Z,10.43
2018-11-22T18:24:02.727Z,10.60
2018-11-22T18:26:32.840Z,10.55
2018-11-22T18:29:02.869Z,9.63
2018-11-22T18:31:32.534Z,10.37
2018-11-22T18:34:02.174Z,10.11
2018-11-22T18:36:32.193Z,10.35
2018-11-22T18:39:01.824Z,10.49
2018-11-22T18:41:31.470Z,10.22
2018-11-22T18:44:01.120Z,10.12
2018-11-22T18:46:31.152Z,10.41
2018-11-22T18:49:00.786Z,10.30
2018-11-22T18:51:30.438Z,10.38
2018-11-22T18:54:00.079Z,10.38
2018-11-22T18:56:29.715Z,10.48
2018-11-22T18:58:59.371Z,10.53
2018-11-22T19:01:29.005Z,10.37
2018-11-22T19:03:58.675Z,10.49
2018-11-22T19:06:28.304Z,10.64
2018-11-22T19:08:57.960Z,10.43
2018-11-22T19:11:28.041Z,10.28
2018-11-22T19:13:57.696Z,10.51
2018-11-22T19:16:27.387Z,10.51
2018-11-22T19:18:57.053Z,10.12
2018-11-22T19:21:27.072Z,10.47
2018-11-22T19:23:56.713Z,9.84
2018-11-22T19:26:26.329Z,9.93
2018-11-22T19:28:56.383Z,10.02
2018-11-22T19:31:26.006Z,10.39
2018-11-22T19:33:55.686Z,10.71
2018-11-22T19:36:26.128Z,10.31
2018-11-22T19:39:14.704Z,10.16
2018-11-22T19:42:03.631Z,10.24
2018-11-22T19:44:52.158Z,9.98
2018-11-22T19:47:21.799Z,10.29
2018-11-22T19:49:51.430Z,10.27
2018-11-22T19:52:21.068Z,9.57
2018-11-22T19:55:11.313Z,10.13
2018-11-22T19:57:41.242Z,9.98
2018-11-22T20:00:12.265Z,10.33
2018-11-22T20:02:43.017Z,10.48
2018-11-22T20:05:13.948Z,9.75
2018-11-22T20:07:45.110Z,9.80
2018-11-22T20:10:19.651Z,10.26
2018-11-22T20:12:49.869Z,10.50
2018-11-22T20:15:19.502Z,10.14
2018-11-22T20:17:49.808Z,9.82
2018-11-22T20:20:20.021Z,10.48
2018-11-22T20:22:49.663Z,10.04
2018-11-22T20:25:20.161Z,10.37
2018-11-22T20:27:50.592Z,9.88
2018-11-22T20:30:39.288Z,10.29
2018-11-22T20:33:08.936Z,10.11
2018-11-22T20:35:57.170Z,9.88
2018-11-22T20:38:26.820Z,9.41
2018-11-22T20:40:57.444Z,10.21
2018-11-22T20:43:26.167Z,10.08
2018-11-22T20:45:55.810Z,9.98
2018-11-22T20:48:25.473Z,10.21
2018-11-22T20:50:55.092Z,10.40
2018-11-22T20:53:24.724Z,9.75
2018-11-22T20:55:54.526Z,10.03
2018-11-22T20:58:24.120Z,10.26
2018-11-22T21:00:54.557Z,10.11
2018-11-22T21:03:24.176Z,9.91
2018-11-22T21:05:53.857Z,9.97
2018-11-22T21:08:24.281Z,9.97
2018-11-22T21:10:54.046Z,9.67
2018-11-22T21:13:24.032Z,9.95
2018-11-22T21:15:54.063Z,9.69
2018-11-22T21:18:23.876Z,9.59
2018-11-22T21:20:53.908Z,9.17
2018-11-22T21:23:23.936Z,9.92
2018-11-22T21:25:53.599Z,9.28
2018-11-22T21:28:23.960Z,9.54
2018-11-22T21:30:53.720Z,9.90
2018-11-22T21:33:23.763Z,9.66
2018-11-22T21:35:53.386Z,9.31
2018-11-22T21:38:23.428Z,9.64
2018-11-22T21:43:41.795Z,9.76
2018-11-22T21:46:11.407Z,9.53
2018-11-22T21:48:41.060Z,9.52
2018-11-22T21:51:10.688Z,9.71
2018-11-22T21:53:40.333Z,9.44
2018-11-22T21:56:10.341Z,9.82
2018-11-22T21:58:40.405Z,10.17
2018-11-22T22:01:10.409Z,10.03
2018-11-22T22:03:40.042Z,9.90
2018-11-22T22:06:28.553Z,9.37
2018-11-22T22:08:58.196Z,9.76
2018-11-22T22:11:27.848Z,9.50
2018-11-22T22:13:57.488Z,9.97
2018-11-22T22:16:27.124Z,9.72
2018-11-22T22:18:57.257Z,9.97
2018-11-22T22:21:26.898Z,9.63
2018-11-22T22:23:56.935Z,9.54
2018-11-22T22:26:26.885Z,9.71
2018-11-22T22:28:56.505Z,9.67
2018-11-22T22:31:26.539Z,9.67
2018-11-22T22:33:56.535Z,9.54
2018-11-22T22:36:26.930Z,9.74
2018-11-22T22:38:56.565Z,9.71
2018-11-22T22:41:26.170Z,9.47
2018-11-22T22:43:56.191Z,9.85
2018-11-22T22:46:25.823Z,10.15
2018-11-22T22:49:14.392Z,9.33
2018-11-22T22:51:44.059Z,9.33
2018-11-22T22:54:14.094Z,9.61
2018-11-22T22:56:43.725Z,9.80
2018-11-22T22:59:14.142Z,9.52
2018-11-22T23:01:43.790Z,9.68
2018-11-22T23:04:13.468Z,9.56
2018-11-22T23:06:43.550Z,9.38
2018-11-22T23:09:32.859Z,9.97
2018-11-22T23:12:02.875Z,9.97
2018-11-22T23:14:51.746Z,10.08
2018-11-22T23:17:21.419Z,9.66
2018-11-22T23:19:51.049Z,9.89
2018-11-22T23:22:20.713Z,9.96
2018-11-22T23:24:50.344Z,10.04
2018-11-22T23:27:19.997Z,9.95
2018-11-22T23:29:50.328Z,10.13
2018-11-22T23:32:19.971Z,9.93
2018-11-22T23:34:50.005Z,9.74
2018-11-22T23:37:20.065Z,9.73
2018-11-22T23:39:49.729Z,9.45
2018-11-22T23:42:19.714Z,9.81
2018-11-22T23:44:49.362Z,9.60
2018-11-22T23:47:37.627Z,9.49
2018-11-22T23:50:09.007Z,9.75
2018-11-22T23:52:38.628Z,9.70
2018-11-22T23:55:09.065Z,9.45
2018-11-22T23:57:39.991Z,9.98
